Terminal Aerodrome Forecast
Issued by NWS

Home | Current Version | Previous Version | Graphics & Text | Print | Product List | Glossary On
Versions: 1 2 3 4 5 6 7 8 9 10 11 12 13 14 15 16 17 18 19
000
FTUS43 KGRB 300535
TAFAUW
TAF
KAUW 300535Z 3006/3106 00000KT 2SM BR SCT005 SCT020
      TEMPO 3009/3013 1SM BR OVC005
     FM301500 21004KT P6SM BKN015
     FM301600 22007KT P6SM FEW020
     FM301800 21008KT P6SM SKC=

USA.gov is the U.S. government's official web portal to all federal, state and local government web resources and services.